createdAt,value
2022-11-22T00:01:34.698Z,6.79
2022-11-22T00:06:56.435Z,6.79
2022-11-22T00:12:18.160Z,6.88
2022-11-22T00:17:40.078Z,6.87
2022-11-22T00:23:01.997Z,6.82
2022-11-22T00:28:23.692Z,6.93
2022-11-22T00:33:45.417Z,6.89
2022-11-22T00:39:07.112Z,6.88
2022-11-22T00:44:28.791Z,6.96
2022-11-22T00:49:50.673Z,6.96
2022-11-22T00:55:12.341Z,6.96
2022-11-22T01:00:34.444Z,6.98
2022-11-22T01:05:56.139Z,7.05
2022-11-22T01:11:18.838Z,7.11
2022-11-22T01:16:40.613Z,7.22
2022-11-22T01:22:02.365Z,7.27
2022-11-22T01:27:24.489Z,7.27
2022-11-22T01:32:46.212Z,7.22
2022-11-22T01:38:07.947Z,7.28
2022-11-22T01:43:29.776Z,7.29
2022-11-22T01:48:56.816Z,7.24
2022-11-22T01:54:24.249Z,7.22
2022-11-22T01:59:53.719Z,7.31
2022-11-22T02:05:17.996Z,7.22
2022-11-22T02:10:44.834Z,7.24
2022-11-22T02:16:07.180Z,7.27
2022-11-22T02:21:29.295Z,7.26
2022-11-22T02:26:50.981Z,7.28
2022-11-22T02:32:12.639Z,7.24
2022-11-22T02:37:34.415Z,7.25
2022-11-22T02:43:01.708Z,7.29
2022-11-22T02:48:23.509Z,7.20
2022-11-22T02:53:49.911Z,7.22
2022-11-22T02:59:11.636Z,7.13
2022-11-22T03:04:33.326Z,7.08
2022-11-22T03:09:54.995Z,7.03
2022-11-22T03:15:16.733Z,7.11
2022-11-22T03:20:38.409Z,7.14
2022-11-22T03:26:00.127Z,7.13
2022-11-22T03:31:21.811Z,7.17
2022-11-22T03:36:43.557Z,7.25
2022-11-22T03:42:05.273Z,7.39
2022-11-22T03:47:26.945Z,7.26
2022-11-22T03:52:48.663Z,7.30
2022-11-22T03:58:10.558Z,7.23
2022-11-22T04:03:32.550Z,7.22
2022-11-22T04:08:54.319Z,7.09
2022-11-22T04:14:34.871Z,7.00
2022-11-22T04:20:15.147Z,6.99
2022-11-22T04:25:39.283Z,7.03
2022-11-22T04:31:19.651Z,6.94
2022-11-22T04:36:41.334Z,6.88
2022-11-22T04:42:21.268Z,6.93
2022-11-22T04:48:01.286Z,6.92
2022-11-22T04:53:23.065Z,6.87
2022-11-22T04:58:44.784Z,6.75
2022-11-22T05:04:06.451Z,6.68
2022-11-22T05:09:28.508Z,6.75
2022-11-22T05:14:50.425Z,6.66
2022-11-22T05:20:12.237Z,6.49
2022-11-22T05:25:33.959Z,6.51
2022-11-22T05:30:56.681Z,6.52
2022-11-22T05:36:19.133Z,6.56
2022-11-22T05:41:55.624Z,6.57
2022-11-22T05:47:17.315Z,6.56
2022-11-22T05:52:39.241Z,6.62
2022-11-22T05:58:01.595Z,6.73
2022-11-22T06:03:23.272Z,6.86
2022-11-22T06:08:47.598Z,6.76
2022-11-22T06:14:09.333Z,6.69
2022-11-22T06:19:31.158Z,6.69
2022-11-22T06:24:52.921Z,6.70
2022-11-22T06:30:15.074Z,6.74
2022-11-22T06:35:36.773Z,6.69
2022-11-22T06:41:06.959Z,6.66
2022-11-22T06:46:28.698Z,6.70
2022-11-22T06:51:50.383Z,6.79
2022-11-22T06:57:15.113Z,6.80
2022-11-22T07:02:36.809Z,6.68
2022-11-22T07:08:05.417Z,6.64
2022-11-22T07:13:29.952Z,6.65
2022-11-22T07:18:51.679Z,6.70
2022-11-22T07:24:14.307Z,6.68
2022-11-22T07:29:35.986Z,6.71
2022-11-22T07:34:57.644Z,6.79
2022-11-22T07:40:19.323Z,6.87
2022-11-22T07:45:40.991Z,7.02
2022-11-22T07:51:07.275Z,7.14
2022-11-22T07:56:28.940Z,7.21
2022-11-22T08:01:50.680Z,7.28
2022-11-22T08:07:12.443Z,7.32
2022-11-22T08:12:34.119Z,7.39
2022-11-22T08:17:55.886Z,7.44
2022-11-22T08:23:17.651Z,7.41
2022-11-22T08:28:40.308Z,7.48
2022-11-22T08:34:02.121Z,7.43
2022-11-22T08:39:23.841Z,7.59
2022-11-22T08:44:45.555Z,7.61
2022-11-22T08:50:07.826Z,7.59
2022-11-22T08:55:29.573Z,7.72
2022-11-22T09:00:51.313Z,7.67
2022-11-22T09:11:59.727Z,7.78
2022-11-22T09:17:21.981Z,7.92
2022-11-22T09:22:43.766Z,7.92
2022-11-22T09:28:05.460Z,7.98
2022-11-22T09:33:27.691Z,8.01
2022-11-22T09:38:50.735Z,8.12
2022-11-22T09:44:36.309Z,8.18
2022-11-22T09:50:26.307Z,8.16
2022-11-22T09:55:52.872Z,8.21
2022-11-22T10:01:23.036Z,8.21
2022-11-22T10:06:54.081Z,8.24
2022-11-22T10:12:39.022Z,8.18
2022-11-22T10:18:05.047Z,8.20
2022-11-22T10:23:27.523Z,8.21
2022-11-22T10:29:03.335Z,8.24
2022-11-22T10:34:46.459Z,8.20
2022-11-22T10:40:18.697Z,8.30
2022-11-22T10:45:59.069Z,8.26
2022-11-22T10:51:31.376Z,8.30
2022-11-22T10:56:55.260Z,8.31
2022-11-22T11:02:38.954Z,8.31
2022-11-22T11:08:21.773Z,8.36
2022-11-22T11:13:47.452Z,8.47
2022-11-22T11:19:20.806Z,8.35
2022-11-22T11:24:42.501Z,8.46
2022-11-22T11:30:04.754Z,8.54
2022-11-22T11:35:29.053Z,8.50
2022-11-22T11:40:50.711Z,8.49
2022-11-22T11:46:26.473Z,8.54
2022-11-22T11:51:54.319Z,8.56
2022-11-22T11:57:19.045Z,8.60
2022-11-22T12:02:46.491Z,8.63
2022-11-22T12:08:31.545Z,8.53
2022-11-22T12:14:19.655Z,8.59
2022-11-22T12:20:00.676Z,8.64
2022-11-22T12:31:36.468Z,8.71
2022-11-22T12:37:12.483Z,8.77
2022-11-22T12:42:43.604Z,8.82
2022-11-22T12:48:13.526Z,8.82
2022-11-22T12:48:23.741Z,8.71
2022-11-22T12:53:39.531Z,8.80
2022-11-22T12:59:17.671Z,8.83
2022-11-22T13:04:52.469Z,8.86
2022-11-22T13:10:26.112Z,8.87
2022-11-22T13:15:51.194Z,8.82
2022-11-22T13:21:22.027Z,8.84
2022-11-22T13:27:14.717Z,8.93
2022-11-22T13:32:41.732Z,8.93
2022-11-22T13:38:21.106Z,8.86
2022-11-22T13:44:26.312Z,8.85
2022-11-22T13:49:49.396Z,8.89
2022-11-22T13:55:38.835Z,8.84
2022-11-22T14:01:03.743Z,8.90
2022-11-22T14:06:30.379Z,8.88
2022-11-22T14:12:10.183Z,8.88
2022-11-22T14:17:54.446Z,8.82
2022-11-22T14:23:34.780Z,8.84
2022-11-22T14:29:16.265Z,8.78
2022-11-22T14:35:03.503Z,8.78
2022-11-22T14:40:40.202Z,8.90
2022-11-22T14:46:30.377Z,8.85
2022-11-22T14:51:55.354Z,8.81
2022-11-22T14:57:24.763Z,8.75
2022-11-22T15:03:31.729Z,8.74
2022-11-22T15:09:45.110Z,8.62
2022-11-22T16:02:47.070Z,8.35
2022-11-22T16:08:12.907Z,8.36
2022-11-22T16:13:36.140Z,8.38
2022-11-22T16:19:24.358Z,8.37
2022-11-22T16:24:46.044Z,8.34
2022-11-22T16:30:11.697Z,8.28
2022-11-22T16:35:33.355Z,8.21
2022-11-22T16:40:57.677Z,8.15
2022-11-22T16:46:19.708Z,8.22
2022-11-22T16:51:44.560Z,8.27
2022-11-22T16:57:14.970Z,8.29
2022-11-22T17:02:41.161Z,8.30
2022-11-22T17:08:02.899Z,8.35
2022-11-22T17:13:26.555Z,8.46
2022-11-22T17:18:48.388Z,8.49
2022-11-22T17:24:19.634Z,8.53
2022-11-22T17:29:50.580Z,8.55
2022-11-22T17:35:12.780Z,8.51
2022-11-22T17:40:34.515Z,8.54
2022-11-22T17:45:56.255Z,8.59
2022-11-22T17:51:17.961Z,8.60
2022-11-22T17:56:39.799Z,8.63
2022-11-22T18:02:01.638Z,8.60
2022-11-22T18:07:24.141Z,8.48
2022-11-22T18:13:05.697Z,8.46
2022-11-22T18:18:55.160Z,8.40
2022-11-22T18:24:09.567Z,8.34
2022-11-22T18:29:46.626Z,8.35
2022-11-22T18:35:08.426Z,8.34
2022-11-22T18:40:30.172Z,8.29
2022-11-22T18:45:51.889Z,8.29
2022-11-22T18:51:13.625Z,8.34
2022-11-22T18:56:39.744Z,8.34
2022-11-22T19:02:01.456Z,8.41
2022-11-22T19:07:23.405Z,8.42
2022-11-22T19:12:45.145Z,8.39
2022-11-22T19:18:09.595Z,8.30
2022-11-22T19:23:32.593Z,8.31
2022-11-22T19:28:55.979Z,8.19
2022-11-22T19:34:18.089Z,8.27
2022-11-22T19:39:39.877Z,8.29
2022-11-22T19:45:01.644Z,8.26
2022-11-22T19:50:23.307Z,8.26
2022-11-22T19:55:45.645Z,8.20
2022-11-22T20:01:09.799Z,8.13
2022-11-22T20:06:33.184Z,8.08
2022-11-22T20:11:54.887Z,8.06
2022-11-22T20:17:16.733Z,8.07
2022-11-22T20:22:38.409Z,8.11
2022-11-22T20:28:00.135Z,7.98
2022-11-22T20:33:21.792Z,7.92
2022-11-22T20:38:44.385Z,7.86
2022-11-22T20:44:06.792Z,7.85
2022-11-22T20:49:30.570Z,7.77
2022-11-22T20:54:52.233Z,7.73
2022-11-22T21:00:14.407Z,7.80
2022-11-22T21:05:36.440Z,7.87
2022-11-22T21:11:13.463Z,7.94
2022-11-22T21:16:35.145Z,7.94
2022-11-22T21:21:56.823Z,7.85
2022-11-22T21:27:20.318Z,7.89
2022-11-22T21:32:42.026Z,7.69
2022-11-22T21:38:03.695Z,7.30
2022-11-22T21:43:26.165Z,7.13
2022-11-22T21:48:50.166Z,7.18
2022-11-22T21:54:11.965Z,7.15
2022-11-22T21:59:34.160Z,7.06
2022-11-22T22:04:55.896Z,7.05
2022-11-22T22:10:17.726Z,7.10
2022-11-22T22:15:39.817Z,7.09
2022-11-22T22:21:07.622Z,7.18
2022-11-22T22:26:31.972Z,7.26
2022-11-22T22:31:53.616Z,7.24
2022-11-22T22:37:15.307Z,7.24
2022-11-22T22:42:37.077Z,7.29
2022-11-22T22:47:58.728Z,7.33
2022-11-22T22:53:20.456Z,7.18
2022-11-22T22:58:42.328Z,7.11
2022-11-22T23:04:04.141Z,7.05
2022-11-22T23:09:25.847Z,6.86
2022-11-22T23:14:47.539Z,6.87
2022-11-22T23:20:09.702Z,6.78
2022-11-22T23:25:31.449Z,6.66
2022-11-22T23:30:53.283Z,6.50
2022-11-22T23:36:17.628Z,6.38
2022-11-22T23:41:39.373Z,6.36
2022-11-22T23:47:01.026Z,6.36
2022-11-22T23:52:22.685Z,6.43
2022-11-22T23:57:44.430Z,6.48
